Rottingdean, United Kingdom
Current Conditions -  °F | °C
As of 8:50 AM on Friday 28 Nov 2014 (Local Time) from EGKA Reporting Station
Broken Clouds Broken Clouds  
Wind Chill: 11°   Ceiling: 900
Heat Index: 11°   Visibility: 4mi
Dew Point: 10°   Wind: 10mph
Humidity: 94%   Direction: 80°E
Pressure: 29.56"   Gusts: NA
Location:  50.81°N, 0.06°W
Report Text: EGKA 280850Z 08009KT 6000 FEW007 BKN009 11/10 Q1001
Loading
Personal Weather Stations






























Interactive Weather Map New forecast layout! Learn more

10-Day Weather Forecast

Advertisements
Track Severe Weather on mobile